Time;durP1;ratioP1;P1;durP2;ratioP2;P2;SDS_P1;SDS_P2;PMS_P1;PMS_P2;Temp;Humidity;BMP_temperature;BMP_pressure;BME280_temperature;BME280_humidity;BME280_pressure;Samples;Min_cycle;Max_cycle;Signal;HPM_P1;HPM_P2
2021/09/30 00:00:21;;;;;;;1.52;0.90;;;;;;;13.14;69.20;99730.09;4973689;28;103079;-64
2021/09/30 00:02:49;;;;;;;1.60;0.70;;;;;;;12.89;69.91;99735.28;4975251;28;103380;-64
2021/09/30 00:05:17;;;;;;;1.13;0.73;;;;;;;12.93;70.43;99726.19;4975896;28;103731;-65
2021/09/30 00:07:46;;;;;;;1.90;0.80;;;;;;;13.17;69.51;99729.88;4974141;28;102670;-64
2021/09/30 00:10:19;;;;;;;2.73;1.00;;;;;;;12.55;70.92;99735.75;4975120;28;103218;-64
2021/09/30 00:12:51;;;;;;;1.65;0.80;;;;;;;12.84;70.01;99737.38;4975347;28;103142;-65
2021/09/30 00:15:31;;;;;;;3.00;0.98;;;;;;;12.51;71.45;99735.13;4976188;28;103977;-64
2021/09/30 00:34:44;;;;;;;1.90;0.80;;;;;;;12.56;71.07;99742.78;4975861;28;102707;-64
2021/09/30 00:40:16;;;;;;;1.67;0.90;;;;;;;12.30;71.75;99746.22;4976866;28;103869;-63
2021/09/30 00:45:49;;;;;;;2.30;1.00;;;;;;;12.16;72.47;99739.13;4943931;28;102709;-63
2021/09/30 00:51:17;;;;;;;1.30;0.90;;;;;;;12.36;71.87;99740.53;4953541;28;104143;-63
2021/09/30 00:54:12;;;;;;;3.22;1.10;;;;;;;12.11;72.65;99738.56;4977790;28;104127;-64
2021/09/30 02:19:08;;;;;;;1.87;1.00;;;;;;;12.04;72.72;99779.66;4976104;28;103132;-64
2021/09/30 02:30:55;;;;;;;0.95;0.50;;;;;;;12.16;72.30;99777.06;4897408;28;103230;-62
2021/09/30 02:59:23;;;;;;;2.65;0.90;;;;;;;11.37;75.24;99801.28;4970050;28;103302;-65
2021/09/30 03:01:53;;;;;;;2.00;0.70;;;;;;;11.53;75.01;99794.19;4973088;28;102920;-64
2021/09/30 03:04:23;;;;;;;1.40;0.70;;;;;;;11.63;74.47;99790.91;4972197;28;102720;-64
2021/09/30 03:06:54;;;;;;;2.13;0.90;;;;;;;11.48;74.36;99802.38;4971933;28;103819;-64
2021/09/30 03:09:36;;;;;;;0.98;0.70;;;;;;;11.71;74.01;99790.47;4974551;28;103471;-63
2021/09/30 03:12:08;;;;;;;1.00;0.60;;;;;;;11.80;73.51;99789.91;4977826;28;102599;-64
2021/09/30 03:14:44;;;;;;;1.10;0.60;;;;;;;11.83;73.29;99797.69;4976571;28;102784;-64
2021/09/30 03:17:18;;;;;;;1.60;0.90;;;;;;;11.69;73.41;99802.94;4976554;28;102927;-64
2021/09/30 03:19:52;;;;;;;2.97;0.90;;;;;;;11.55;73.75;99805.53;4976894;28;103339;-64
2021/09/30 03:22:20;;;;;;;1.25;0.73;;;;;;;11.62;73.73;99801.59;4977507;28;102656;-64
2021/09/30 03:24:51;;;;;;;1.00;0.60;;;;;;;11.68;73.33;99806.50;4977853;28;104384;-64
2021/09/30 03:27:20;;;;;;;1.92;1.00;;;;;;;11.64;73.20;99811.13;4975251;28;102833;-64
2021/09/30 03:29:48;;;;;;;1.37;0.73;;;;;;;11.60;73.58;99804.31;4975656;28;102959;-64
2021/09/30 03:32:18;;;;;;;1.50;0.90;;;;;;;11.56;73.32;99817.81;4975910;28;102623;-64
2021/09/30 03:35:06;;;;;;;2.03;0.98;;;;;;;11.47;73.06;99810.41;4972661;28;102757;-64
2021/09/30 03:37:35;;;;;;;1.93;0.80;;;;;;;11.33;73.81;99820.94;4974347;28;105319;-65
2021/09/30 03:40:07;;;;;;;2.40;1.00;;;;;;;11.17;74.65;99822.78;4975982;28;103784;-64
2021/09/30 03:42:34;;;;;;;2.00;1.00;;;;;;;11.13;74.45;99818.59;4971466;28;102780;-63
2021/09/30 03:45:08;;;;;;;2.40;0.88;;;;;;;11.09;74.02;99820.53;4975086;28;102878;-64
2021/09/30 03:47:40;;;;;;;2.00;0.98;;;;;;;10.82;75.46;99815.03;4976546;28;103233;-64
2021/09/30 03:50:17;;;;;;;1.45;0.98;;;;;;;10.56;76.46;99820.03;4972866;28;103235;-69
2021/09/30 03:52:58;;;;;;;2.20;1.13;;;;;;;10.38;77.84;99817.47;4973840;28;103173;-64
2021/09/30 03:55:42;;;;;;;3.33;1.20;;;;;;;10.05;78.87;99819.22;4974346;28;104359;-65
2021/09/30 04:00:56;;;;;;;2.85;1.20;;;;;;;9.86;80.67;99821.97;4976719;28;104337;-65
2021/09/30 04:03:26;;;;;;;3.30;1.33;;;;;;;9.55;81.38;99827.09;4975212;28;102732;-64
2021/09/30 04:05:54;;;;;;;3.37;1.50;;;;;;;9.98;79.94;99833.69;4975642;28;102927;-68
2021/09/30 04:08:22;;;;;;;2.90;1.27;;;;;;;10.10;79.23;99834.84;4973834;28;103368;-65
2021/09/30 04:10:52;;;;;;;2.70;1.17;;;;;;;9.95;79.69;99831.22;4974205;28;103410;-65
2021/09/30 04:13:21;;;;;;;2.40;1.20;;;;;;;9.97;78.93;99839.03;4974010;28;102822;-65
2021/09/30 04:15:49;;;;;;;2.43;1.27;;;;;;;10.00;79.98;99841.50;4973930;28;102877;-68
2021/09/30 04:18:18;;;;;;;4.03;1.23;;;;;;;9.87;80.43;99844.81;4971461;28;104304;-62
2021/09/30 04:20:49;;;;;;;1.30;1.00;;;;;;;10.13;79.13;99845.28;4973644;28;106293;-66
2021/09/30 04:23:18;;;;;;;2.15;1.20;;;;;;;10.19;77.80;99850.25;4973155;28;103903;-63
2021/09/30 04:25:46;;;;;;;2.00;1.30;;;;;;;10.22;78.00;99847.41;4974752;28;104440;-63
2021/09/30 04:28:18;;;;;;;2.83;1.20;;;;;;;10.05;78.26;99847.44;4973922;28;103354;-66
2021/09/30 04:30:49;;;;;;;1.98;1.20;;;;;;;10.10;78.78;99855.97;4972306;28;103308;-65
2021/09/30 04:33:22;;;;;;;1.98;1.10;;;;;;;10.26;78.04;99854.25;4972711;28;102697;-66
2021/09/30 04:35:52;;;;;;;2.40;1.50;;;;;;;10.06;78.29;99846.47;4974282;28;102981;-66
2021/09/30 04:38:20;;;;;;;2.58;1.30;;;;;;;10.04;79.16;99854.50;4974860;28;104276;-66
2021/09/30 04:40:50;;;;;;;2.58;1.25;;;;;;;9.97;79.25;99849.59;4974097;28;103421;-63
2021/09/30 04:43:19;;;;;;;2.38;1.25;;;;;;;10.10;78.94;99850.69;4974856;28;103317;-63
2021/09/30 04:45:48;;;;;;;3.88;1.30;;;;;;;10.16;78.95;99850.41;4971740;28;104119;-63
2021/09/30 04:48:18;;;;;;;3.20;1.33;;;;;;;10.23;78.13;99851.78;4974532;28;104420;-64
2021/09/30 04:51:03;;;;;;;1.77;1.27;;;;;;;10.36;77.93;99848.38;4974789;28;103285;-63
2021/09/30 04:53:33;;;;;;;2.10;1.38;;;;;;;10.28;77.81;99849.72;4974854;28;102821;-63
2021/09/30 04:56:02;;;;;;;1.50;1.33;;;;;;;10.37;77.79;99849.25;4974939;28;102853;-63
2021/09/30 04:58:37;;;;;;;2.78;1.75;;;;;;;10.05;77.52;99850.06;4974800;28;103247;-62
2021/09/30 05:01:06;;;;;;;2.85;1.80;;;;;;;10.04;78.98;99856.28;4976130;28;103307;-62
2021/09/30 05:03:39;;;;;;;3.25;1.80;;;;;;;9.98;79.30;99859.22;4974092;28;102739;-62
2021/09/30 05:06:13;;;;;;;3.42;2.13;;;;;;;9.99;78.93;99853.03;4974362;28;102756;-62
2021/09/30 05:08:44;;;;;;;2.72;1.70;;;;;;;10.04;80.04;99856.28;4974409;28;103263;-63
2021/09/30 05:11:12;;;;;;;2.90;1.92;;;;;;;10.17;78.31;99858.22;4974147;28;103681;-62
2021/09/30 05:13:42;;;;;;;2.13;1.50;;;;;;;10.28;78.68;99857.66;4969679;28;102674;-63
2021/09/30 05:16:13;;;;;;;2.53;1.70;;;;;;;10.34;78.14;99860.84;4972489;28;102858;-63
2021/09/30 05:19:10;;;;;;;3.65;1.90;;;;;;;10.26;78.61;99857.75;4966604;28;103259;-66
2021/09/30 05:21:38;;;;;;;3.95;2.30;;;;;;;10.31;77.96;99875.97;4975894;28;103074;-66
2021/09/30 05:24:06;;;;;;;4.27;2.40;;;;;;;10.02;79.36;99874.00;4975459;28;102694;-66
2021/09/30 05:26:34;;;;;;;5.10;2.20;;;;;;;9.74;80.42;99872.75;4975512;28;103289;-65
2021/09/30 05:29:06;;;;;;;3.47;2.20;;;;;;;9.43;82.57;99880.47;4974728;28;103302;-62
2021/09/30 05:31:37;;;;;;;4.97;2.27;;;;;;;9.25;83.86;99876.97;4974306;28;103740;-62
2021/09/30 05:34:25;;;;;;;4.55;2.33;;;;;;;9.14;83.93;99894.22;4975894;28;102617;-65
2021/09/30 05:36:53;;;;;;;2.75;1.98;;;;;;;9.63;81.99;99885.63;4975204;28;102974;-66
2021/09/30 05:39:22;;;;;;;3.85;2.10;;;;;;;9.89;80.91;99890.44;4976490;28;104269;-67
2021/09/30 05:41:53;;;;;;;2.30;1.75;;;;;;;10.10;79.63;99885.00;4975118;28;103230;-62
2021/09/30 05:44:25;;;;;;;2.47;1.85;;;;;;;10.18;79.28;99888.13;4953484;28;102805;-66
2021/09/30 05:46:55;;;;;;;3.47;2.33;;;;;;;10.06;78.96;99899.28;4951863;28;103320;-67
2021/09/30 05:49:23;;;;;;;4.95;2.38;;;;;;;10.17;79.36;99899.63;4952418;28;103890;-62
2021/09/30 05:52:17;;;;;;;3.13;2.17;;;;;;;10.19;78.85;99895.13;4923745;28;103472;-66
2021/09/30 05:55:07;;;;;;;3.80;2.00;;;;;;;10.43;78.44;99896.47;4944664;28;103007;-67
2021/09/30 05:57:35;;;;;;;4.32;2.05;;;;;;;10.45;78.12;99891.97;4953781;28;103163;-66
2021/09/30 06:00:13;;;;;;;2.67;2.10;;;;;;;10.56;78.14;99897.53;4968142;28;105112;-68
2021/09/30 06:11:20;;;;;;;35.88;7.65;;;;;;;10.91;77.88;99893.84;4900318;28;104095;-63
2021/09/30 06:13:52;;;;;;;28.77;6.95;;;;;;;10.96;77.27;99891.78;4949253;28;103399;-66
2021/09/30 06:16:23;;;;;;;19.33;4.10;;;;;;;10.89;77.71;99890.41;4951407;28;103143;-63
2021/09/30 06:19:01;;;;;;;10.38;3.20;;;;;;;10.58;79.29;99900.97;4950663;28;103162;-64
2021/09/30 06:21:32;;;;;;;4.38;2.35;;;;;;;10.83;78.11;99898.72;4941042;28;103435;-66
2021/09/30 06:24:00;;;;;;;3.05;1.83;;;;;;;11.05;78.29;99901.00;4971672;28;103281;-67
2021/09/30 06:26:30;;;;;;;2.97;1.80;;;;;;;11.25;77.39;99907.84;4972896;28;102684;-68
2021/09/30 06:29:18;;;;;;;3.90;2.00;;;;;;;11.40;76.62;99901.66;4974349;28;104075;-63
2021/09/30 06:31:49;;;;;;;4.80;2.10;;;;;;;11.28;75.63;99919.13;4971087;28;103274;-62
2021/09/30 06:34:55;;;;;;;3.63;1.63;;;;;;;11.35;76.13;99914.31;4973321;28;103272;-62
2021/09/30 06:37:40;;;;;;;2.83;1.52;;;;;;;11.56;75.36;99915.75;4970564;28;102686;-62
2021/09/30 06:40:09;;;;;;;2.97;1.98;;;;;;;11.51;74.75;99904.56;4999532;28;102946;-67
2021/09/30 06:42:39;;;;;;;2.20;1.30;;;;;;;11.81;74.39;99912.56;4972290;28;103473;-66
2021/09/30 06:45:29;;;;;;;3.23;1.57;;;;;;;12.00;73.25;99914.06;4972294;28;103203;-66
2021/09/30 06:48:37;;;;;;;2.50;1.00;;;;;;;12.07;72.78;99920.69;4966783;28;102715;-61
2021/09/30 06:51:12;;;;;;;4.17;1.57;;;;;;;12.10;72.51;99917.84;4973331;28;103256;-61
2021/09/30 06:53:48;;;;;;;2.30;1.10;;;;;;;12.16;73.08;99921.94;4972470;28;103625;-62
2021/09/30 06:56:19;;;;;;;1.92;1.05;;;;;;;12.47;72.23;99915.63;4973879;28;103116;-66
2021/09/30 06:59:19;;;;;;;2.70;1.50;;;;;;;12.52;71.96;99916.22;4975412;28;103076;-62
2021/09/30 07:02:07;;;;;;;2.03;1.27;;;;;;;12.74;71.43;99913.97;4974546;28;102855;-62
2021/09/30 07:04:55;;;;;;;2.27;1.20;;;;;;;12.94;70.86;99910.06;4973750;28;103162;-68
2021/09/30 07:07:42;;;;;;;3.63;1.30;;;;;;;12.66;71.77;99914.41;4973217;28;103110;-62
2021/09/30 07:10:12;;;;;;;1.60;1.20;;;;;;;13.32;69.24;99922.63;4972570;28;102734;-63
2021/09/30 07:12:41;;;;;;;2.58;1.20;;;;;;;13.18;68.79;99917.34;4975044;28;104054;-63
2021/09/30 07:15:10;;;;;;;2.90;1.30;;;;;;;13.03;68.63;99923.59;4974924;28;104081;-63
2021/09/30 07:17:38;;;;;;;3.58;1.15;;;;;;;12.85;70.68;99930.06;4975421;28;103209;-63
2021/09/30 07:20:09;;;;;;;2.35;1.02;;;;;;;13.97;67.39;99919.25;4974712;28;102616;-63
2021/09/30 07:22:37;;;;;;;2.25;1.05;;;;;;;14.44;65.53;99928.38;4974415;28;102766;-69
2021/09/30 07:25:07;;;;;;;1.87;1.10;;;;;;;14.60;64.26;99927.31;4973915;28;103267;-68
2021/09/30 07:27:35;;;;;;;3.08;1.30;;;;;;;14.52;65.34;99925.19;4975060;28;103223;-63
2021/09/30 07:30:04;;;;;;;3.88;1.50;;;;;;;14.49;63.95;99930.72;4975293;28;102722;-64
2021/09/30 07:32:32;;;;;;;3.72;1.38;;;;;;;15.06;62.87;99925.78;4974893;28;102663;-68
2021/09/30 07:35:00;;;;;;;4.07;1.40;;;;;;;15.13;62.13;99921.72;4975004;28;103254;-63
2021/09/30 07:37:30;;;;;;;3.55;1.25;;;;;;;15.58;61.29;99923.72;4973485;28;103312;-63
2021/09/30 07:39:58;;;;;;;2.40;1.10;;;;;;;15.97;61.81;99919.91;4974927;28;102735;-69
2021/09/30 07:42:26;;;;;;;6.55;1.75;;;;;;;15.43;60.67;99930.16;4975201;28;102752;-69
2021/09/30 07:44:54;;;;;;;3.08;1.20;;;;;;;16.20;60.30;99931.50;4972388;28;103286;-63
2021/09/30 07:47:24;;;;;;;2.78;1.25;;;;;;;15.98;59.92;99924.28;4973186;28;103233;-68
2021/09/30 07:49:52;;;;;;;3.78;1.60;;;;;;;16.41;58.39;99921.00;4974262;28;102724;-69
2021/09/30 07:52:20;;;;;;;2.47;1.08;;;;;;;16.80;57.44;99931.28;4975723;28;103001;-69
2021/09/30 07:54:49;;;;;;;2.67;1.30;;;;;;;16.25;58.40;99937.34;4975515;28;103319;-69
2021/09/30 07:57:17;;;;;;;2.73;1.10;;;;;;;16.24;57.93;99928.50;4976719;28;103012;-69
2021/09/30 07:59:45;;;;;;;;;;;;;;;15.76;58.56;99931.31;4976722;28;103734;-69
2021/09/30 08:02:13;;;;;;;4.07;1.10;;;;;;;16.00;57.87;99929.50;4967158;28;102652;-70
2021/09/30 08:04:42;;;;;;;3.30;1.40;;;;;;;15.87;57.34;99934.03;4971569;28;103306;-70
2021/09/30 08:07:10;;;;;;;3.15;1.20;;;;;;;16.57;57.57;99925.06;4973109;28;103226;-70
2021/09/30 08:09:38;;;;;;;4.43;1.20;;;;;;;16.73;56.47;99916.72;4972832;28;102785;-63
2021/09/30 08:12:08;;;;;;;;;;;;;;;16.33;56.21;99921.63;4976569;28;102735;-63
2021/09/30 08:14:36;;;;;;;3.43;0.80;;;;;;;17.53;55.55;99915.56;4976354;28;103265;-70
2021/09/30 08:17:05;;;;;;;4.97;1.02;;;;;;;17.12;56.09;99916.22;4974795;28;103187;-63
2021/09/30 08:19:33;;;;;;;3.95;0.88;;;;;;;16.76;55.74;99919.13;4974916;28;103058;-69
2021/09/30 08:22:01;;;;;;;2.07;0.80;;;;;;;17.04;55.97;99917.84;4974740;28;103996;-70
2021/09/30 08:24:29;;;;;;;2.05;0.80;;;;;;;17.00;56.35;99914.56;4975311;28;103260;-70
2021/09/30 08:26:57;;;;;;;4.87;1.17;;;;;;;16.82;56.35;99908.00;4975333;28;103379;-69
2021/09/30 08:29:27;;;;;;;2.80;1.10;;;;;;;16.36;55.62;99920.53;4973861;28;102761;-70
2021/09/30 08:31:56;;;;;;;2.83;0.70;;;;;;;16.40;55.22;99917.50;4973547;28;102918;-64
2021/09/30 08:34:24;;;;;;;4.03;1.15;;;;;;;17.26;54.72;99923.16;4972989;28;103287;-63
2021/09/30 08:36:52;;;;;;;1.45;0.90;;;;;;;17.76;55.29;99916.38;4974718;28;103223;-70
2021/09/30 08:39:20;;;;;;;2.83;0.80;;;;;;;18.02;52.40;99914.22;4973799;28;102627;-69
2021/09/30 08:41:48;;;;;;;3.50;0.80;;;;;;;17.15;54.16;99909.81;4972210;28;102913;-69
2021/09/30 08:44:16;;;;;;;4.22;1.05;;;;;;;17.60;51.63;99907.94;4970244;28;104173;-68
2021/09/30 08:46:46;;;;;;;3.42;1.00;;;;;;;17.51;53.10;99909.50;4972139;28;104115;-70
2021/09/30 08:49:14;;;;;;;3.55;1.00;;;;;;;17.16;52.32;99906.16;4974288;28;102681;-70
2021/09/30 08:51:42;;;;;;;3.60;0.90;;;;;;;16.97;53.59;99904.13;4976508;28;102668;-70
2021/09/30 08:54:10;;;;;;;3.60;1.10;;;;;;;16.38;51.22;99906.09;4977275;28;103264;-70
2021/09/30 08:56:39;;;;;;;2.25;1.02;;;;;;;16.34;54.38;99904.63;4978612;28;103232;-70
2021/09/30 08:59:14;;;;;;;1.70;0.80;;;;;;;16.63;54.55;99900.59;4979664;28;102733;-69
2021/09/30 09:01:47;;;;;;;2.78;0.70;;;;;;;16.25;52.99;99902.69;4980074;28;103220;-70
2021/09/30 09:04:20;;;;;;;2.47;1.00;;;;;;;16.58;53.75;99897.44;4976934;28;104058;-69
2021/09/30 09:06:49;;;;;;;2.67;1.00;;;;;;;16.38;52.68;99900.75;4977185;28;103182;-69
2021/09/30 09:09:25;;;;;;;2.55;0.80;;;;;;;16.13;52.04;99898.28;4979140;28;102678;-70
2021/09/30 09:11:54;;;;;;;1.88;0.85;;;;;;;16.27;52.66;99905.22;4979620;28;103437;-69
2021/09/30 09:14:27;;;;;;;1.58;0.70;;;;;;;16.37;51.68;99900.88;4976118;28;104049;-70
2021/09/30 09:16:59;;;;;;;2.92;1.08;;;;;;;16.15;52.38;99909.66;4977502;28;103242;-69
2021/09/30 09:19:32;;;;;;;3.88;0.90;;;;;;;16.66;52.45;99903.03;4979907;28;104578;-63
2021/09/30 09:22:05;;;;;;;5.65;0.80;;;;;;;16.06;52.27;99902.38;4977070;28;102976;-70
2021/09/30 09:24:33;;;;;;;2.60;0.80;;;;;;;16.45;52.93;99903.81;4978302;28;104105;-63
2021/09/30 09:27:02;;;;;;;5.10;0.90;;;;;;;16.78;54.39;99904.72;4977611;28;103341;-62
2021/09/30 09:29:32;;;;;;;3.38;0.90;;;;;;;16.23;52.52;99909.94;4977878;28;102666;-63
2021/09/30 09:32:06;;;;;;;2.50;0.75;;;;;;;16.21;52.05;99906.53;4976857;28;104070;-63
2021/09/30 09:34:37;;;;;;;1.98;0.90;;;;;;;16.44;53.34;99902.97;4978505;28;103667;-63
2021/09/30 09:37:24;;;;;;;3.15;1.33;;;;;;;16.96;52.64;99898.88;4977470;28;103257;-69
2021/09/30 09:39:56;;;;;;;2.20;0.80;;;;;;;17.29;48.49;99905.03;4977351;28;102698;-64
2021/09/30 09:42:30;;;;;;;6.85;0.75;;;;;;;17.78;48.73;99893.88;4976756;28;102867;-63
2021/09/30 09:45:01;;;;;;;3.25;1.00;;;;;;;17.44;50.34;99892.25;4975954;28;103311;-64
2021/09/30 09:47:32;;;;;;;2.30;0.60;;;;;;;18.03;50.33;99875.78;4977232;28;103035;-63
2021/09/30 09:50:15;;;;;;;11.60;1.55;;;;;;;18.33;48.45;99879.34;4977941;28;103011;-64
2021/09/30 09:52:50;;;;;;;3.42;0.90;;;;;;;18.09;46.60;99875.25;4979139;28;103636;-63
2021/09/30 09:55:29;;;;;;;2.25;0.70;;;;;;;17.82;49.31;99878.44;4977932;28;103048;-63
2021/09/30 09:58:03;;;;;;;1.70;0.75;;;;;;;18.31;47.01;99875.13;4975771;28;103711;-63
2021/09/30 10:00:32;;;;;;;3.38;0.80;;;;;;;16.98;47.67;99865.75;4977326;28;102738;-63
2021/09/30 10:03:16;;;;;;;1.80;0.60;;;;;;;18.10;47.45;99871.63;4978523;28;103040;-64
2021/09/30 10:05:46;;;;;;;3.47;0.93;;;;;;;17.85;45.99;99868.31;4974295;28;103874;-63
2021/09/30 10:08:15;;;;;;;2.13;0.70;;;;;;;18.65;45.99;99867.75;4979950;28;103248;-65
2021/09/30 10:10:46;;;;;;;2.97;1.00;;;;;;;18.66;44.11;99862.25;4976951;28;103105;-64
2021/09/30 10:13:15;;;;;;;3.67;0.88;;;;;;;18.28;46.55;99859.34;4978003;28;102835;-64
2021/09/30 10:15:59;;;;;;;1.45;0.60;;;;;;;17.91;46.90;99846.41;4977228;28;103171;-65
2021/09/30 10:18:38;;;;;;;3.30;0.75;;;;;;;17.43;46.65;99853.19;4978042;28;103201;-63
2021/09/30 10:21:06;;;;;;;1.58;0.80;;;;;;;17.73;46.81;99850.66;4974858;28;103087;-63
2021/09/30 10:23:38;;;;;;;1.20;0.68;;;;;;;18.47;44.65;99843.38;4978504;28;102701;-63
2021/09/30 10:26:13;;;;;;;3.55;0.98;;;;;;;18.25;45.82;99843.53;4977386;28;103300;-65
2021/09/30 10:28:44;;;;;;;4.32;1.00;;;;;;;18.43;44.38;99831.28;4979026;28;103243;-63
2021/09/30 10:31:31;;;;;;;1.45;0.55;;;;;;;19.31;42.06;99834.13;4976915;28;103524;-64
2021/09/30 10:34:03;;;;;;;1.75;1.00;;;;;;;19.54;39.61;99828.38;4977768;28;102829;-63
2021/09/30 10:36:41;;;;;;;2.35;0.80;;;;;;;19.32;41.53;99833.97;4955988;28;104139;-63
2021/09/30 10:39:24;;;;;;;2.22;1.00;;;;;;;18.56;43.15;99825.72;4974427;28;103498;-64
2021/09/30 10:41:54;;;;;;;2.80;0.80;;;;;;;18.71;43.42;99830.59;4974771;28;103121;-64
2021/09/30 10:44:25;;;;;;;2.00;0.75;;;;;;;19.48;41.41;99830.81;4947958;28;103683;-63
2021/09/30 10:46:58;;;;;;;1.77;0.82;;;;;;;19.32;38.47;99827.78;4969177;28;103814;-72
2021/09/30 10:49:44;;;;;;;2.17;0.40;;;;;;;19.73;37.81;99824.88;4973858;28;102745;-71
2021/09/30 10:52:29;;;;;;;;;;;;;;;20.00;37.61;99816.94;4975576;28;102857;-72
2021/09/30 10:55:24;;;;;;;;;;;;;;;19.99;38.60;99820.59;4976304;28;102936;-72
2021/09/30 10:57:53;;;;;;;;;;;;;;;20.20;37.73;99813.25;4976263;28;103079;-63
2021/09/30 11:00:39;;;;;;;;;;;;;;;19.80;38.85;99806.38;4975862;28;102926;-71
2021/09/30 11:03:12;;;;;;;;;;;;;;;19.33;40.05;99816.06;4976943;28;102551;-63
2021/09/30 11:05:43;;;;;;;;;;;;;;;19.33;40.19;99816.06;4975981;28;104109;-71
2021/09/30 11:08:21;;;;;;;;;;;;;;;19.28;40.18;99808.47;4972950;28;104342;-64
2021/09/30 11:11:08;;;;;;;;;;;;;;;19.29;39.75;99814.66;4969171;28;103185;-71
2021/09/30 11:13:38;;;;;;;;;;;;;;;19.88;39.79;99806.50;4969292;28;103070;-71
2021/09/30 11:16:08;;;;;;;;;;;;;;;19.71;39.56;99808.06;4969982;28;103285;-71
2021/09/30 11:18:46;;;;;;;1.25;0.60;;;;;;;19.63;38.96;99810.63;4972261;28;103279;-63
2021/09/30 11:21:46;;;;;;;2.40;0.75;;;;;;;20.54;38.01;99793.94;4985486;28;103189;-71
2021/09/30 11:24:32;;;;;;;2.92;0.70;;;;;;;19.93;36.84;99807.75;4970086;28;102700;-62
2021/09/30 11:27:09;;;;;;;2.08;0.57;;;;;;;20.39;37.72;99793.56;4972349;28;104045;-62
2021/09/30 11:29:38;;;;;;;2.72;0.60;;;;;;;20.07;38.62;99798.44;4969886;28;103324;-70
2021/09/30 11:32:23;;;;;;;1.80;0.82;;;;;;;20.16;37.13;99801.09;4970172;28;103476;-62
2021/09/30 11:34:56;;;;;;;1.42;0.70;;;;;;;20.53;38.54;99800.28;4970223;28;102667;-62
2021/09/30 11:37:32;;;;;;;1.80;0.70;;;;;;;20.42;37.94;99797.78;4972472;28;103464;-62
2021/09/30 11:40:02;;;;;;;1.67;0.80;;;;;;;21.19;38.10;99791.03;4973221;28;104022;-62
2021/09/30 11:42:39;;;;;;;1.88;0.70;;;;;;;20.93;37.05;99779.31;4977036;28;103266;-63
2021/09/30 11:45:10;;;;;;;1.88;0.80;;;;;;;20.10;36.54;99785.56;4976144;28;103021;-63
2021/09/30 11:47:39;;;;;;;2.50;0.80;;;;;;;19.74;37.89;99772.94;4975185;28;104083;-63
2021/09/30 11:50:15;;;;;;;2.10;0.70;;;;;;;19.79;38.86;99775.19;4974417;28;103337;-63
2021/09/30 11:52:45;;;;;;;2.23;0.80;;;;;;;19.32;38.82;99774.19;4978121;28;103248;-63
2021/09/30 11:55:16;;;;;;;1.23;0.70;;;;;;;20.63;38.97;99767.03;4977143;28;102711;-63
2021/09/30 11:57:54;;;;;;;1.33;0.60;;;;;;;21.02;37.79;99762.31;4978438;28;103049;-71
2021/09/30 12:00:23;;;;;;;2.50;0.60;;;;;;;20.78;37.35;99753.97;5002978;28;103229;-70
2021/09/30 12:03:09;;;;;;;1.70;0.63;;;;;;;20.63;37.78;99756.28;4975208;28;103300;-62
2021/09/30 12:05:39;;;;;;;1.30;0.60;;;;;;;20.71;38.44;99747.50;4975475;28;103244;-70
2021/09/30 12:08:09;;;;;;;4.82;0.82;;;;;;;20.74;38.96;99741.84;4976790;28;104238;-62
2021/09/30 12:10:39;;;;;;;2.78;0.70;;;;;;;21.06;38.51;99741.34;4976087;28;103446;-62
2021/09/30 12:13:15;;;;;;;4.90;1.05;;;;;;;20.64;37.82;99746.41;4975646;28;102978;-62
2021/09/30 12:15:44;;;;;;;1.48;0.80;;;;;;;21.16;36.12;99737.63;4976761;28;102667;-62
2021/09/30 12:18:16;;;;;;;2.50;0.90;;;;;;;19.64;37.45;99735.44;4973096;28;104144;-69
2021/09/30 12:20:49;;;;;;;1.73;0.77;;;;;;;19.79;37.76;99751.91;4974248;28;104099;-62
2021/09/30 12:23:19;;;;;;;2.75;0.75;;;;;;;20.59;36.83;99732.59;4975166;28;103230;-62
2021/09/30 12:25:47;;;;;;;1.60;0.60;;;;;;;21.09;37.13;99720.44;4974308;28;102823;-62
2021/09/30 12:28:16;;;;;;;2.10;1.00;;;;;;;20.80;36.78;99725.09;4975858;28;102912;-69
2021/09/30 12:30:44;;;;;;;6.10;1.42;;;;;;;20.97;36.13;99723.47;4975951;28;104341;-70
2021/09/30 12:33:13;;;;;;;3.10;0.90;;;;;;;20.51;36.36;99719.06;4977823;28;103399;-62
2021/09/30 12:35:43;;;;;;;3.75;0.73;;;;;;;20.45;36.92;99722.34;4977233;28;102733;-62
2021/09/30 12:38:13;;;;;;;2.20;0.70;;;;;;;21.25;36.04;99720.56;4977312;28;102925;-69
2021/09/30 12:40:44;;;;;;;2.05;0.70;;;;;;;20.61;35.33;99714.47;4977067;28;103343;-62
2021/09/30 12:43:15;;;;;;;2.22;0.60;;;;;;;19.93;35.82;99708.53;4976859;28;103279;-63
2021/09/30 12:45:45;;;;;;;1.90;0.63;;;;;;;19.40;37.03;99715.41;4976933;28;103753;-70
2021/09/30 12:48:16;;;;;;;0.98;0.52;;;;;;;20.75;35.20;99700.56;4976476;28;103993;-63
2021/09/30 12:50:48;;;;;;;1.30;0.70;;;;;;;20.28;34.58;99701.66;4975885;28;103404;-71
2021/09/30 12:53:19;;;;;;;1.83;0.60;;;;;;;20.64;34.56;99696.25;4976882;28;103377;-71
2021/09/30 12:55:50;;;;;;;1.38;0.70;;;;;;;21.20;33.88;99695.16;4977166;28;103148;-71
2021/09/30 12:58:30;;;;;;;2.00;0.70;;;;;;;21.05;35.18;99689.44;4977761;28;102659;-62
2021/09/30 13:00:59;;;;;;;3.35;0.80;;;;;;;20.87;36.85;99685.91;4976710;28;103579;-70
2021/09/30 13:03:28;;;;;;;0.73;0.57;;;;;;;21.59;36.53;99684.88;4975572;28;103280;-70
2021/09/30 13:05:58;;;;;;;2.42;1.10;;;;;;;21.29;34.69;99673.59;4977653;28;103063;-70
2021/09/30 13:08:38;;;;;;;2.22;1.08;;;;;;;20.72;35.54;99674.84;4975707;28;102790;-70
2021/09/30 13:11:29;;;;;;;2.25;1.00;;;;;;;20.89;36.64;99675.00;4975645;28;103394;-70
2021/09/30 13:14:21;;;;;;;2.47;1.20;;;;;;;21.13;36.56;99676.16;4977441;28;103185;-70
2021/09/30 13:16:52;;;;;;;1.87;0.73;;;;;;;21.60;36.33;99667.75;4976925;28;103068;-71
2021/09/30 13:19:21;;;;;;;2.30;0.95;;;;;;;20.95;37.26;99669.03;4977332;28;102799;-63
2021/09/30 13:22:01;;;;;;;2.08;0.75;;;;;;;21.70;35.49;99653.22;4971175;28;103636;-62
2021/09/30 13:24:31;;;;;;;2.00;0.80;;;;;;;20.72;35.94;99663.25;4976832;28;103317;-62
2021/09/30 13:27:00;;;;;;;2.20;0.80;;;;;;;21.39;36.11;99658.19;4951417;28;102908;-62
2021/09/30 13:29:42;;;;;;;1.63;0.60;;;;;;;20.73;36.46;99654.22;4968356;28;103226;-70
2021/09/30 13:32:10;;;;;;;1.80;0.70;;;;;;;20.48;37.21;99652.28;4970937;28;103972;-62
2021/09/30 13:34:38;;;;;;;1.58;0.60;;;;;;;20.93;36.49;99645.03;4967950;28;104174;-62
2021/09/30 13:37:06;;;;;;;1.47;0.70;;;;;;;20.46;37.33;99635.47;4968444;28;102868;-70
2021/09/30 13:39:34;;;;;;;0.90;0.50;;;;;;;21.06;36.84;99634.72;4969320;28;103324;-70
2021/09/30 13:42:05;;;;;;;2.47;0.70;;;;;;;20.88;37.00;99636.59;4955457;28;103456;-63
2021/09/30 13:44:34;;;;;;;2.47;0.80;;;;;;;20.41;37.65;99635.06;4959348;28;103189;-71
2021/09/30 13:47:03;;;;;;;4.55;1.08;;;;;;;20.64;37.54;99641.69;4948548;28;102836;-63
2021/09/30 13:49:32;;;;;;;2.03;0.80;;;;;;;20.99;35.95;99641.72;4968315;28;103192;-71
2021/09/30 13:52:00;;;;;;;2.23;0.70;;;;;;;20.79;36.44;99630.28;4952934;28;103346;-70
2021/09/30 13:54:28;;;;;;;1.50;0.50;;;;;;;20.73;36.79;99627.38;4955582;28;103219;-70
2021/09/30 13:56:56;;;;;;;3.27;1.00;;;;;;;20.10;37.34;99634.50;4949316;28;102942;-70
2021/09/30 13:59:26;;;;;;;1.37;0.60;;;;;;;20.52;37.02;99624.97;4949504;28;102815;-70
2021/09/30 14:02:14;;;;;;;1.52;0.70;;;;;;;20.81;36.51;99624.75;4947334;28;104085;-70
2021/09/30 14:04:42;;;;;;;2.40;0.60;;;;;;;20.76;37.49;99627.06;4946704;28;103196;-69
2021/09/30 14:07:11;;;;;;;1.55;0.60;;;;;;;20.99;37.31;99622.91;4947031;28;102691;-71
2021/09/30 14:09:39;;;;;;;1.10;0.60;;;;;;;21.12;36.96;99623.41;4943684;28;104287;-70
2021/09/30 14:12:08;;;;;;;3.50;0.80;;;;;;;20.32;37.08;99622.56;4948758;28;103380;-70
2021/09/30 14:14:38;;;;;;;1.80;0.73;;;;;;;20.25;37.74;99616.94;4949901;28;103202;-70
2021/09/30 14:17:06;;;;;;;0.77;0.40;;;;;;;20.87;37.89;99617.94;4938553;28;103133;-70
2021/09/30 14:19:35;;;;;;;2.40;0.70;;;;;;;19.38;37.45;99612.84;4949040;28;102936;-70
2021/09/30 14:22:03;;;;;;;4.85;1.85;;;;;;;19.61;38.47;99611.56;4945676;28;103463;-70
2021/09/30 14:24:32;;;;;;;3.13;2.50;;;;;;;19.89;38.74;99607.94;4947228;28;103753;-63
2021/09/30 14:27:01;;;;;;;3.33;1.37;;;;;;;19.56;39.77;99608.47;4942758;28;102934;-62
2021/09/30 14:29:30;;;;;;;3.90;1.00;;;;;;;18.63;40.81;99613.63;4950390;28;104272;-64